sensor_id;sensor_type;location;lat;lon;timestamp;P1;durP1;ratioP1;P2;durP2;ratioP2
2259;SDS011;333;48.800;9.530;2022-09-21T00:01:58;6.30;;;5.60;;
2259;SDS011;333;48.800;9.530;2022-09-21T00:04:26;7.60;;;5.57;;
2259;SDS011;333;48.800;9.530;2022-09-21T00:06:53;5.50;;;4.97;;
2259;SDS011;333;48.800;9.530;2022-09-21T00:09:21;8.67;;;6.07;;
2259;SDS011;333;48.800;9.530;2022-09-21T00:11:48;9.00;;;6.33;;
2259;SDS011;333;48.800;9.530;2022-09-21T00:14:16;8.70;;;5.73;;
2259;SDS011;333;48.800;9.530;2022-09-21T00:16:43;6.87;;;5.57;;
2259;SDS011;333;48.800;9.530;2022-09-21T00:19:11;11.17;;;6.00;;
2259;SDS011;333;48.800;9.530;2022-09-21T00:21:39;7.33;;;6.47;;
2259;SDS011;333;48.800;9.530;2022-09-21T00:24:06;7.73;;;5.83;;
2259;SDS011;333;48.800;9.530;2022-09-21T00:26:35;6.57;;;5.60;;
2259;SDS011;333;48.800;9.530;2022-09-21T00:29:02;6.37;;;5.27;;
2259;SDS011;333;48.800;9.530;2022-09-21T00:31:30;6.43;;;5.67;;
2259;SDS011;333;48.800;9.530;2022-09-21T00:33:57;6.67;;;5.70;;
2259;SDS011;333;48.800;9.530;2022-09-21T00:36:25;7.83;;;5.70;;
2259;SDS011;333;48.800;9.530;2022-09-21T00:38:53;7.47;;;5.37;;
2259;SDS011;333;48.800;9.530;2022-09-21T00:41:21;9.07;;;6.57;;
2259;SDS011;333;48.800;9.530;2022-09-21T00:46:32;9.10;;;5.90;;
2259;SDS011;333;48.800;9.530;2022-09-21T00:49:00;6.27;;;5.30;;
2259;SDS011;333;48.800;9.530;2022-09-21T00:51:27;6.10;;;5.50;;
2259;SDS011;333;48.800;9.530;2022-09-21T00:53:56;8.63;;;5.77;;
2259;SDS011;333;48.800;9.530;2022-09-21T00:56:26;6.70;;;5.67;;
2259;SDS011;333;48.800;9.530;2022-09-21T00:58:54;8.43;;;5.77;;
2259;SDS011;333;48.800;9.530;2022-09-21T01:01:21;7.40;;;5.70;;
2259;SDS011;333;48.800;9.530;2022-09-21T01:03:50;7.23;;;6.40;;
2259;SDS011;333;48.800;9.530;2022-09-21T01:06:18;6.20;;;5.37;;
2259;SDS011;333;48.800;9.530;2022-09-21T01:08:46;8.13;;;6.03;;
2259;SDS011;333;48.800;9.530;2022-09-21T01:11:25;8.13;;;6.67;;
2259;SDS011;333;48.800;9.530;2022-09-21T01:13:57;9.70;;;6.70;;
2259;SDS011;333;48.800;9.530;2022-09-21T01:16:31;8.03;;;7.03;;
2259;SDS011;333;48.800;9.530;2022-09-21T01:19:04;7.10;;;6.30;;
2259;SDS011;333;48.800;9.530;2022-09-21T01:21:38;6.80;;;6.10;;
2259;SDS011;333;48.800;9.530;2022-09-21T01:24:18;9.30;;;6.43;;
2259;SDS011;333;48.800;9.530;2022-09-21T01:26:51;9.23;;;6.50;;
2259;SDS011;333;48.800;9.530;2022-09-21T01:29:25;11.23;;;5.40;;
2259;SDS011;333;48.800;9.530;2022-09-21T01:31:57;11.50;;;7.03;;
2259;SDS011;333;48.800;9.530;2022-09-21T01:34:27;6.93;;;6.20;;
2259;SDS011;333;48.800;9.530;2022-09-21T01:36:55;12.07;;;6.17;;
2259;SDS011;333;48.800;9.530;2022-09-21T01:39:24;8.00;;;5.83;;
2259;SDS011;333;48.800;9.530;2022-09-21T01:41:52;7.03;;;5.90;;
2259;SDS011;333;48.800;9.530;2022-09-21T01:44:20;7.50;;;6.67;;
2259;SDS011;333;48.800;9.530;2022-09-21T01:46:49;9.63;;;6.97;;
2259;SDS011;333;48.800;9.530;2022-09-21T01:49:19;8.73;;;5.90;;
2259;SDS011;333;48.800;9.530;2022-09-21T01:51:49;8.40;;;6.03;;
2259;SDS011;333;48.800;9.530;2022-09-21T01:54:18;7.20;;;5.90;;
2259;SDS011;333;48.800;9.530;2022-09-21T01:56:46;8.87;;;7.40;;
2259;SDS011;333;48.800;9.530;2022-09-21T01:59:17;9.80;;;6.67;;
2259;SDS011;333;48.800;9.530;2022-09-21T02:01:47;8.60;;;6.13;;
2259;SDS011;333;48.800;9.530;2022-09-21T02:04:17;6.23;;;5.50;;
2259;SDS011;333;48.800;9.530;2022-09-21T02:06:45;9.67;;;6.40;;
2259;SDS011;333;48.800;9.530;2022-09-21T02:09:12;6.23;;;5.63;;
2259;SDS011;333;48.800;9.530;2022-09-21T02:11:40;9.10;;;6.53;;
2259;SDS011;333;48.800;9.530;2022-09-21T02:14:08;8.00;;;6.43;;
2259;SDS011;333;48.800;9.530;2022-09-21T02:16:36;7.00;;;6.30;;
2259;SDS011;333;48.800;9.530;2022-09-21T02:19:11;10.03;;;6.37;;
2259;SDS011;333;48.800;9.530;2022-09-21T02:21:47;16.57;;;7.27;;
2259;SDS011;333;48.800;9.530;2022-09-21T02:24:18;8.40;;;5.33;;
2259;SDS011;333;48.800;9.530;2022-09-21T02:26:47;9.83;;;5.97;;
2259;SDS011;333;48.800;9.530;2022-09-21T02:29:17;8.00;;;6.10;;
2259;SDS011;333;48.800;9.530;2022-09-21T02:31:47;9.80;;;7.30;;
2259;SDS011;333;48.800;9.530;2022-09-21T02:34:18;9.90;;;7.00;;
2259;SDS011;333;48.800;9.530;2022-09-21T02:36:50;8.53;;;7.30;;
2259;SDS011;333;48.800;9.530;2022-09-21T02:39:23;11.50;;;7.40;;
2259;SDS011;333;48.800;9.530;2022-09-21T02:41:57;11.23;;;8.43;;
2259;SDS011;333;48.800;9.530;2022-09-21T02:44:28;9.17;;;7.27;;
2259;SDS011;333;48.800;9.530;2022-09-21T02:46:58;9.40;;;7.10;;
2259;SDS011;333;48.800;9.530;2022-09-21T02:49:28;9.57;;;7.17;;
2259;SDS011;333;48.800;9.530;2022-09-21T02:51:58;10.47;;;6.97;;
2259;SDS011;333;48.800;9.530;2022-09-21T02:54:28;10.37;;;7.43;;
2259;SDS011;333;48.800;9.530;2022-09-21T02:56:56;9.57;;;7.07;;
2259;SDS011;333;48.800;9.530;2022-09-21T02:59:24;11.77;;;6.97;;
2259;SDS011;333;48.800;9.530;2022-09-21T03:01:51;10.30;;;6.77;;
2259;SDS011;333;48.800;9.530;2022-09-21T03:04:19;11.00;;;6.97;;
2259;SDS011;333;48.800;9.530;2022-09-21T03:06:47;9.20;;;6.53;;
2259;SDS011;333;48.800;9.530;2022-09-21T03:09:15;13.13;;;6.83;;
2259;SDS011;333;48.800;9.530;2022-09-21T03:11:42;9.53;;;7.23;;
2259;SDS011;333;48.800;9.530;2022-09-21T03:14:10;11.77;;;6.70;;
2259;SDS011;333;48.800;9.530;2022-09-21T03:16:37;14.53;;;7.40;;
2259;SDS011;333;48.800;9.530;2022-09-21T03:19:04;5.60;;;5.10;;
2259;SDS011;333;48.800;9.530;2022-09-21T03:21:31;16.70;;;7.30;;
2259;SDS011;333;48.800;9.530;2022-09-21T03:23:59;8.60;;;6.53;;
2259;SDS011;333;48.800;9.530;2022-09-21T03:26:27;21.23;;;8.10;;
2259;SDS011;333;48.800;9.530;2022-09-21T03:28:55;16.63;;;8.10;;
2259;SDS011;333;48.800;9.530;2022-09-21T03:31:22;10.60;;;7.20;;
2259;SDS011;333;48.800;9.530;2022-09-21T03:33:49;9.13;;;6.77;;
2259;SDS011;333;48.800;9.530;2022-09-21T03:36:16;23.33;;;6.80;;
2259;SDS011;333;48.800;9.530;2022-09-21T03:38:44;7.30;;;5.93;;
2259;SDS011;333;48.800;9.530;2022-09-21T03:41:12;9.63;;;6.57;;
2259;SDS011;333;48.800;9.530;2022-09-21T03:43:40;11.77;;;6.30;;
2259;SDS011;333;48.800;9.530;2022-09-21T03:46:07;13.27;;;6.53;;
2259;SDS011;333;48.800;9.530;2022-09-21T03:48:35;16.27;;;8.10;;
2259;SDS011;333;48.800;9.530;2022-09-21T03:51:03;10.83;;;6.50;;
2259;SDS011;333;48.800;9.530;2022-09-21T03:53:30;23.17;;;9.27;;
2259;SDS011;333;48.800;9.530;2022-09-21T03:55:57;9.80;;;7.00;;
2259;SDS011;333;48.800;9.530;2022-09-21T03:58:24;9.20;;;7.30;;
2259;SDS011;333;48.800;9.530;2022-09-21T04:00:53;9.30;;;7.10;;
2259;SDS011;333;48.800;9.530;2022-09-21T04:03:20;12.57;;;7.90;;
2259;SDS011;333;48.800;9.530;2022-09-21T04:05:47;15.03;;;8.07;;
2259;SDS011;333;48.800;9.530;2022-09-21T04:08:14;13.67;;;8.80;;
2259;SDS011;333;48.800;9.530;2022-09-21T04:10:42;11.93;;;8.20;;
2259;SDS011;333;48.800;9.530;2022-09-21T04:13:09;8.37;;;7.20;;
2259;SDS011;333;48.800;9.530;2022-09-21T04:15:37;14.57;;;9.90;;
2259;SDS011;333;48.800;9.530;2022-09-21T04:18:06;13.93;;;8.70;;
2259;SDS011;333;48.800;9.530;2022-09-21T04:20:33;11.10;;;9.07;;
2259;SDS011;333;48.800;9.530;2022-09-21T04:23:00;19.43;;;9.80;;
2259;SDS011;333;48.800;9.530;2022-09-21T04:25:27;14.37;;;7.43;;
2259;SDS011;333;48.800;9.530;2022-09-21T04:27:55;14.20;;;7.47;;
2259;SDS011;333;48.800;9.530;2022-09-21T04:30:22;25.10;;;9.77;;
2259;SDS011;333;48.800;9.530;2022-09-21T04:32:49;23.23;;;9.77;;
2259;SDS011;333;48.800;9.530;2022-09-21T04:35:18;34.50;;;10.17;;
2259;SDS011;333;48.800;9.530;2022-09-21T04:37:45;24.97;;;11.00;;
2259;SDS011;333;48.800;9.530;2022-09-21T04:40:12;12.53;;;8.63;;
2259;SDS011;333;48.800;9.530;2022-09-21T04:42:39;10.80;;;8.20;;
2259;SDS011;333;48.800;9.530;2022-09-21T04:45:07;40.57;;;9.50;;
2259;SDS011;333;48.800;9.530;2022-09-21T04:47:34;19.73;;;9.97;;
2259;SDS011;333;48.800;9.530;2022-09-21T04:50:01;31.00;;;10.40;;
2259;SDS011;333;48.800;9.530;2022-09-21T04:52:30;15.33;;;10.33;;
2259;SDS011;333;48.800;9.530;2022-09-21T04:54:57;21.80;;;10.97;;
2259;SDS011;333;48.800;9.530;2022-09-21T04:57:24;15.43;;;9.43;;
2259;SDS011;333;48.800;9.530;2022-09-21T04:59:51;26.27;;;12.50;;
2259;SDS011;333;48.800;9.530;2022-09-21T05:02:19;26.60;;;11.47;;
2259;SDS011;333;48.800;9.530;2022-09-21T05:04:46;27.10;;;10.70;;
2259;SDS011;333;48.800;9.530;2022-09-21T05:07:13;19.43;;;9.63;;
2259;SDS011;333;48.800;9.530;2022-09-21T05:09:42;38.30;;;11.80;;
2259;SDS011;333;48.800;9.530;2022-09-21T05:12:27;18.33;;;10.37;;
2259;SDS011;333;48.800;9.530;2022-09-21T05:14:54;21.20;;;11.57;;
2259;SDS011;333;48.800;9.530;2022-09-21T05:17:21;27.97;;;12.90;;
2259;SDS011;333;48.800;9.530;2022-09-21T05:19:48;22.60;;;9.60;;
2259;SDS011;333;48.800;9.530;2022-09-21T05:22:16;24.70;;;11.53;;
2259;SDS011;333;48.800;9.530;2022-09-21T05:24:44;41.77;;;15.03;;
2259;SDS011;333;48.800;9.530;2022-09-21T05:27:12;64.17;;;21.67;;
2259;SDS011;333;48.800;9.530;2022-09-21T05:29:39;68.03;;;19.83;;
2259;SDS011;333;48.800;9.530;2022-09-21T05:32:07;46.93;;;16.77;;
2259;SDS011;333;48.800;9.530;2022-09-21T05:34:41;33.60;;;13.37;;
2259;SDS011;333;48.800;9.530;2022-09-21T05:37:10;51.00;;;12.43;;
2259;SDS011;333;48.800;9.530;2022-09-21T05:39:39;32.80;;;12.50;;
2259;SDS011;333;48.800;9.530;2022-09-21T05:42:09;40.07;;;14.00;;
2259;SDS011;333;48.800;9.530;2022-09-21T05:44:37;28.43;;;12.07;;
2259;SDS011;333;48.800;9.530;2022-09-21T05:47:06;21.13;;;9.77;;
2259;SDS011;333;48.800;9.530;2022-09-21T05:49:44;17.17;;;8.33;;
2259;SDS011;333;48.800;9.530;2022-09-21T05:52:13;20.57;;;9.60;;
2259;SDS011;333;48.800;9.530;2022-09-21T05:54:46;21.10;;;10.57;;
2259;SDS011;333;48.800;9.530;2022-09-21T05:57:18;30.87;;;11.30;;
2259;SDS011;333;48.800;9.530;2022-09-21T05:59:50;43.83;;;13.17;;
2259;SDS011;333;48.800;9.530;2022-09-21T06:02:22;17.33;;;9.63;;
2259;SDS011;333;48.800;9.530;2022-09-21T06:04:52;21.50;;;11.23;;
2259;SDS011;333;48.800;9.530;2022-09-21T06:07:22;21.93;;;10.00;;
2259;SDS011;333;48.800;9.530;2022-09-21T06:09:49;13.20;;;8.63;;
2259;SDS011;333;48.800;9.530;2022-09-21T06:12:17;17.10;;;9.63;;
2259;SDS011;333;48.800;9.530;2022-09-21T06:14:45;23.70;;;11.10;;
2259;SDS011;333;48.800;9.530;2022-09-21T06:17:12;42.23;;;16.17;;
2259;SDS011;333;48.800;9.530;2022-09-21T06:19:39;22.53;;;12.50;;
2259;SDS011;333;48.800;9.530;2022-09-21T06:22:06;21.60;;;11.57;;
2259;SDS011;333;48.800;9.530;2022-09-21T06:24:33;16.33;;;11.87;;
2259;SDS011;333;48.800;9.530;2022-09-21T06:27:01;14.97;;;9.80;;
2259;SDS011;333;48.800;9.530;2022-09-21T06:29:29;31.27;;;13.17;;
2259;SDS011;333;48.800;9.530;2022-09-21T06:31:56;59.43;;;16.90;;
2259;SDS011;333;48.800;9.530;2022-09-21T06:34:24;57.00;;;17.63;;
2259;SDS011;333;48.800;9.530;2022-09-21T06:36:51;22.37;;;10.10;;
2259;SDS011;333;48.800;9.530;2022-09-21T06:39:18;26.20;;;12.43;;
2259;SDS011;333;48.800;9.530;2022-09-21T06:41:45;21.97;;;10.27;;
2259;SDS011;333;48.800;9.530;2022-09-21T06:44:12;21.00;;;12.27;;
2259;SDS011;333;48.800;9.530;2022-09-21T06:46:41;35.70;;;12.93;;
2259;SDS011;333;48.800;9.530;2022-09-21T06:49:08;53.13;;;18.13;;
2259;SDS011;333;48.800;9.530;2022-09-21T06:51:35;27.40;;;13.50;;
2259;SDS011;333;48.800;9.530;2022-09-21T06:54:02;15.20;;;10.97;;
2259;SDS011;333;48.800;9.530;2022-09-21T06:56:30;16.17;;;12.27;;
2259;SDS011;333;48.800;9.530;2022-09-21T06:58:57;19.77;;;12.20;;
2259;SDS011;333;48.800;9.530;2022-09-21T07:01:24;17.60;;;12.33;;
2259;SDS011;333;48.800;9.530;2022-09-21T07:03:53;30.20;;;14.53;;
2259;SDS011;333;48.800;9.530;2022-09-21T07:06:20;14.77;;;10.60;;
2259;SDS011;333;48.800;9.530;2022-09-21T07:08:47;16.37;;;11.40;;
2259;SDS011;333;48.800;9.530;2022-09-21T07:11:15;13.70;;;10.87;;
2259;SDS011;333;48.800;9.530;2022-09-21T07:13:42;17.23;;;11.70;;
2259;SDS011;333;48.800;9.530;2022-09-21T07:16:09;15.40;;;10.87;;
2259;SDS011;333;48.800;9.530;2022-09-21T07:18:38;16.20;;;11.50;;
2259;SDS011;333;48.800;9.530;2022-09-21T07:21:07;17.90;;;13.83;;
2259;SDS011;333;48.800;9.530;2022-09-21T07:23:35;13.07;;;11.10;;
2259;SDS011;333;48.800;9.530;2022-09-21T07:26:02;13.67;;;11.53;;
2259;SDS011;333;48.800;9.530;2022-09-21T07:28:30;16.40;;;14.33;;
2259;SDS011;333;48.800;9.530;2022-09-21T07:30:57;13.10;;;11.60;;
2259;SDS011;333;48.800;9.530;2022-09-21T07:33:25;14.83;;;11.10;;
2259;SDS011;333;48.800;9.530;2022-09-21T07:35:52;13.87;;;10.33;;
2259;SDS011;333;48.800;9.530;2022-09-21T07:38:22;14.30;;;11.47;;
2259;SDS011;333;48.800;9.530;2022-09-21T07:40:50;13.70;;;11.23;;
2259;SDS011;333;48.800;9.530;2022-09-21T07:43:17;13.70;;;11.50;;
2259;SDS011;333;48.800;9.530;2022-09-21T07:45:50;15.80;;;10.20;;
2259;SDS011;333;48.800;9.530;2022-09-21T07:48:18;14.03;;;9.80;;
2259;SDS011;333;48.800;9.530;2022-09-21T07:50:46;11.10;;;10.00;;
2259;SDS011;333;48.800;9.530;2022-09-21T07:53:14;10.60;;;9.60;;
2259;SDS011;333;48.800;9.530;2022-09-21T07:55:43;15.07;;;11.30;;
2259;SDS011;333;48.800;9.530;2022-09-21T07:58:10;13.23;;;10.83;;
2259;SDS011;333;48.800;9.530;2022-09-21T08:00:55;14.73;;;11.57;;
2259;SDS011;333;48.800;9.530;2022-09-21T08:03:22;14.83;;;12.00;;
2259;SDS011;333;48.800;9.530;2022-09-21T08:05:49;13.27;;;11.77;;
2259;SDS011;333;48.800;9.530;2022-09-21T08:08:16;12.63;;;11.33;;
2259;SDS011;333;48.800;9.530;2022-09-21T08:10:45;11.90;;;10.60;;
2259;SDS011;333;48.800;9.530;2022-09-21T08:13:12;12.07;;;10.73;;
2259;SDS011;333;48.800;9.530;2022-09-21T08:15:39;12.20;;;10.90;;
2259;SDS011;333;48.800;9.530;2022-09-21T08:18:07;23.30;;;12.13;;
2259;SDS011;333;48.800;9.530;2022-09-21T08:20:34;11.47;;;8.97;;
2259;SDS011;333;48.800;9.530;2022-09-21T08:23:02;9.90;;;8.87;;
2259;SDS011;333;48.800;9.530;2022-09-21T08:25:29;10.47;;;8.77;;
2259;SDS011;333;48.800;9.530;2022-09-21T08:27:58;8.63;;;7.83;;
2259;SDS011;333;48.800;9.530;2022-09-21T08:30:25;7.63;;;6.80;;
2259;SDS011;333;48.800;9.530;2022-09-21T08:32:55;9.43;;;7.30;;
2259;SDS011;333;48.800;9.530;2022-09-21T08:35:22;9.00;;;6.23;;
2259;SDS011;333;48.800;9.530;2022-09-21T08:37:52;13.77;;;6.53;;
2259;SDS011;333;48.800;9.530;2022-09-21T08:40:19;6.10;;;5.57;;
2259;SDS011;333;48.800;9.530;2022-09-21T08:42:49;5.43;;;4.90;;
2259;SDS011;333;48.800;9.530;2022-09-21T08:45:20;5.53;;;4.93;;
2259;SDS011;333;48.800;9.530;2022-09-21T08:47:48;5.50;;;4.57;;
2259;SDS011;333;48.800;9.530;2022-09-21T08:50:25;7.63;;;5.70;;
2259;SDS011;333;48.800;9.530;2022-09-21T08:52:56;5.40;;;4.23;;
2259;SDS011;333;48.800;9.530;2022-09-21T08:55:24;6.20;;;3.70;;
2259;SDS011;333;48.800;9.530;2022-09-21T08:57:52;4.63;;;3.13;;
2259;SDS011;333;48.800;9.530;2022-09-21T09:00:21;3.80;;;2.90;;
2259;SDS011;333;48.800;9.530;2022-09-21T09:02:55;4.13;;;2.80;;
2259;SDS011;333;48.800;9.530;2022-09-21T09:05:31;3.60;;;2.07;;
2259;SDS011;333;48.800;9.530;2022-09-21T09:10:48;2.93;;;1.90;;
2259;SDS011;333;48.800;9.530;2022-09-21T09:13:27;1.70;;;1.53;;
2259;SDS011;333;48.800;9.530;2022-09-21T09:15:59;3.53;;;1.80;;
2259;SDS011;333;48.800;9.530;2022-09-21T09:18:32;1.80;;;1.20;;
2259;SDS011;333;48.800;9.530;2022-09-21T09:21:01;2.70;;;1.40;;
2259;SDS011;333;48.800;9.530;2022-09-21T09:23:31;1.87;;;1.67;;
2259;SDS011;333;48.800;9.530;2022-09-21T09:26:02;1.27;;;1.17;;
2259;SDS011;333;48.800;9.530;2022-09-21T09:28:33;1.17;;;0.90;;
2259;SDS011;333;48.800;9.530;2022-09-21T09:31:05;1.97;;;1.10;;
2259;SDS011;333;48.800;9.530;2022-09-21T09:33:40;1.03;;;0.93;;
2259;SDS011;333;48.800;9.530;2022-09-21T09:36:10;1.33;;;1.17;;
2259;SDS011;333;48.800;9.530;2022-09-21T09:38:38;2.30;;;1.30;;
2259;SDS011;333;48.800;9.530;2022-09-21T09:43:57;1.70;;;1.13;;
2259;SDS011;333;48.800;9.530;2022-09-21T09:46:29;2.80;;;1.20;;
2259;SDS011;333;48.800;9.530;2022-09-21T09:51:43;1.90;;;1.40;;
2259;SDS011;333;48.800;9.530;2022-09-21T09:54:12;2.10;;;1.00;;
2259;SDS011;333;48.800;9.530;2022-09-21T09:56:40;1.10;;;0.97;;
2259;SDS011;333;48.800;9.530;2022-09-21T09:59:09;3.33;;;1.13;;
2259;SDS011;333;48.800;9.530;2022-09-21T10:01:40;1.40;;;1.30;;
2259;SDS011;333;48.800;9.530;2022-09-21T10:04:08;1.07;;;0.97;;
2259;SDS011;333;48.800;9.530;2022-09-21T10:06:36;1.70;;;1.13;;
2259;SDS011;333;48.800;9.530;2022-09-21T10:09:16;1.13;;;0.93;;
2259;SDS011;333;48.800;9.530;2022-09-21T10:11:44;3.00;;;0.90;;
2259;SDS011;333;48.800;9.530;2022-09-21T10:14:13;1.03;;;0.73;;
2259;SDS011;333;48.800;9.530;2022-09-21T10:16:44;1.67;;;0.80;;
2259;SDS011;333;48.800;9.530;2022-09-21T10:19:15;1.13;;;1.03;;
2259;SDS011;333;48.800;9.530;2022-09-21T10:21:43;0.90;;;0.90;;
2259;SDS011;333;48.800;9.530;2022-09-21T10:24:15;1.80;;;1.10;;
2259;SDS011;333;48.800;9.530;2022-09-21T10:26:46;0.87;;;0.87;;
2259;SDS011;333;48.800;9.530;2022-09-21T10:29:17;1.37;;;1.00;;
2259;SDS011;333;48.800;9.530;2022-09-21T10:31:56;1.20;;;0.90;;
2259;SDS011;333;48.800;9.530;2022-09-21T10:34:24;1.57;;;0.90;;
2259;SDS011;333;48.800;9.530;2022-09-21T10:36:53;0.93;;;0.80;;
2259;SDS011;333;48.800;9.530;2022-09-21T10:39:22;2.10;;;0.83;;
2259;SDS011;333;48.800;9.530;2022-09-21T10:41:50;3.37;;;1.20;;
2259;SDS011;333;48.800;9.530;2022-09-21T10:44:19;0.87;;;0.87;;
2259;SDS011;333;48.800;9.530;2022-09-21T10:46:47;2.03;;;0.90;;
2259;SDS011;333;48.800;9.530;2022-09-21T10:49:18;1.43;;;0.77;;
2259;SDS011;333;48.800;9.530;2022-09-21T10:51:46;1.87;;;1.20;;
2259;SDS011;333;48.800;9.530;2022-09-21T10:54:15;2.20;;;1.10;;
2259;SDS011;333;48.800;9.530;2022-09-21T10:56:48;1.97;;;0.70;;
2259;SDS011;333;48.800;9.530;2022-09-21T10:59:21;0.73;;;0.67;;
2259;SDS011;333;48.800;9.530;2022-09-21T11:01:49;3.60;;;1.10;;
2259;SDS011;333;48.800;9.530;2022-09-21T11:04:21;1.10;;;1.00;;
2259;SDS011;333;48.800;9.530;2022-09-21T11:06:50;1.13;;;0.80;;
2259;SDS011;333;48.800;9.530;2022-09-21T11:09:19;1.67;;;0.97;;
2259;SDS011;333;48.800;9.530;2022-09-21T11:11:49;1.80;;;0.80;;
2259;SDS011;333;48.800;9.530;2022-09-21T11:14:23;1.50;;;0.83;;
2259;SDS011;333;48.800;9.530;2022-09-21T11:16:53;1.13;;;1.03;;
2259;SDS011;333;48.800;9.530;2022-09-21T11:19:24;0.90;;;0.90;;
2259;SDS011;333;48.800;9.530;2022-09-21T11:21:54;1.53;;;0.80;;
2259;SDS011;333;48.800;9.530;2022-09-21T11:24:25;1.90;;;0.73;;
2259;SDS011;333;48.800;9.530;2022-09-21T11:26:55;0.80;;;0.80;;
2259;SDS011;333;48.800;9.530;2022-09-21T11:29:28;0.93;;;0.70;;
2259;SDS011;333;48.800;9.530;2022-09-21T11:32:03;0.80;;;0.80;;
2259;SDS011;333;48.800;9.530;2022-09-21T11:34:41;0.70;;;0.70;;
2259;SDS011;333;48.800;9.530;2022-09-21T11:37:14;1.20;;;1.10;;
2259;SDS011;333;48.800;9.530;2022-09-21T11:39:46;0.83;;;0.80;;
2259;SDS011;333;48.800;9.530;2022-09-21T11:42:24;2.20;;;0.90;;
2259;SDS011;333;48.800;9.530;2022-09-21T11:44:58;1.00;;;0.70;;
2259;SDS011;333;48.800;9.530;2022-09-21T11:47:32;0.90;;;0.87;;
2259;SDS011;333;48.800;9.530;2022-09-21T11:50:07;0.77;;;0.77;;
2259;SDS011;333;48.800;9.530;2022-09-21T11:52:39;1.00;;;0.90;;
2259;SDS011;333;48.800;9.530;2022-09-21T11:55:16;1.10;;;1.00;;
2259;SDS011;333;48.800;9.530;2022-09-21T11:57:48;0.83;;;0.80;;
2259;SDS011;333;48.800;9.530;2022-09-21T12:00:18;1.23;;;1.03;;
2259;SDS011;333;48.800;9.530;2022-09-21T12:02:58;1.03;;;1.03;;
2259;SDS011;333;48.800;9.530;2022-09-21T12:05:29;1.10;;;0.90;;
2259;SDS011;333;48.800;9.530;2022-09-21T12:08:03;0.80;;;0.80;;
2259;SDS011;333;48.800;9.530;2022-09-21T12:10:38;1.53;;;0.70;;
2259;SDS011;333;48.800;9.530;2022-09-21T12:13:12;1.07;;;0.90;;
2259;SDS011;333;48.800;9.530;2022-09-21T12:15:44;0.70;;;0.70;;
2259;SDS011;333;48.800;9.530;2022-09-21T12:18:14;1.27;;;0.90;;
2259;SDS011;333;48.800;9.530;2022-09-21T12:20:47;2.00;;;1.03;;
2259;SDS011;333;48.800;9.530;2022-09-21T12:23:17;0.70;;;0.60;;
2259;SDS011;333;48.800;9.530;2022-09-21T12:25:46;1.17;;;0.70;;
2259;SDS011;333;48.800;9.530;2022-09-21T12:28:17;0.70;;;0.70;;
2259;SDS011;333;48.800;9.530;2022-09-21T12:30:46;2.00;;;0.87;;
2259;SDS011;333;48.800;9.530;2022-09-21T12:33:16;1.00;;;1.00;;
2259;SDS011;333;48.800;9.530;2022-09-21T12:35:47;1.00;;;1.00;;
2259;SDS011;333;48.800;9.530;2022-09-21T12:38:16;1.37;;;0.87;;
2259;SDS011;333;48.800;9.530;2022-09-21T12:40:46;2.70;;;1.00;;
2259;SDS011;333;48.800;9.530;2022-09-21T12:43:20;0.80;;;0.70;;
2259;SDS011;333;48.800;9.530;2022-09-21T12:45:50;0.77;;;0.77;;
2259;SDS011;333;48.800;9.530;2022-09-21T12:48:23;1.23;;;0.80;;
2259;SDS011;333;48.800;9.530;2022-09-21T12:50:54;0.70;;;0.70;;
2259;SDS011;333;48.800;9.530;2022-09-21T12:53:23;1.00;;;0.90;;
2259;SDS011;333;48.800;9.530;2022-09-21T12:55:53;0.90;;;0.67;;
2259;SDS011;333;48.800;9.530;2022-09-21T12:58:28;1.03;;;0.83;;
2259;SDS011;333;48.800;9.530;2022-09-21T13:00:59;1.10;;;1.00;;
2259;SDS011;333;48.800;9.530;2022-09-21T13:03:29;1.20;;;0.73;;
2259;SDS011;333;48.800;9.530;2022-09-21T13:06:07;1.53;;;1.03;;
2259;SDS011;333;48.800;9.530;2022-09-21T13:08:38;1.13;;;0.80;;
2259;SDS011;333;48.800;9.530;2022-09-21T13:11:07;0.73;;;0.60;;
2259;SDS011;333;48.800;9.530;2022-09-21T13:13:35;1.40;;;0.90;;
2259;SDS011;333;48.800;9.530;2022-09-21T13:16:04;1.30;;;0.80;;
2259;SDS011;333;48.800;9.530;2022-09-21T13:18:32;0.73;;;0.73;;
2259;SDS011;333;48.800;9.530;2022-09-21T13:21:00;1.27;;;1.17;;
2259;SDS011;333;48.800;9.530;2022-09-21T13:23:31;1.33;;;0.87;;
2259;SDS011;333;48.800;9.530;2022-09-21T13:26:01;1.53;;;0.60;;
2259;SDS011;333;48.800;9.530;2022-09-21T13:28:39;1.23;;;0.93;;
2259;SDS011;333;48.800;9.530;2022-09-21T13:31:29;0.63;;;0.63;;
2259;SDS011;333;48.800;9.530;2022-09-21T13:34:15;1.52;;;1.00;;
2259;SDS011;333;48.800;9.530;2022-09-21T13:36:45;1.20;;;1.10;;
2259;SDS011;333;48.800;9.530;2022-09-21T13:39:33;1.03;;;0.93;;
2259;SDS011;333;48.800;9.530;2022-09-21T13:44:43;1.57;;;0.90;;
2259;SDS011;333;48.800;9.530;2022-09-21T13:47:10;1.00;;;0.90;;
2259;SDS011;333;48.800;9.530;2022-09-21T13:49:39;1.43;;;0.90;;
2259;SDS011;333;48.800;9.530;2022-09-21T13:52:18;0.90;;;0.90;;
2259;SDS011;333;48.800;9.530;2022-09-21T13:54:49;1.27;;;0.97;;
2259;SDS011;333;48.800;9.530;2022-09-21T13:57:17;1.70;;;0.80;;
2259;SDS011;333;48.800;9.530;2022-09-21T13:59:46;2.13;;;1.00;;
2259;SDS011;333;48.800;9.530;2022-09-21T14:02:22;1.10;;;0.70;;
2259;SDS011;333;48.800;9.530;2022-09-21T14:04:51;1.00;;;0.80;;
2259;SDS011;333;48.800;9.530;2022-09-21T14:07:18;1.50;;;1.10;;
2259;SDS011;333;48.800;9.530;2022-09-21T14:09:53;1.10;;;1.00;;
2259;SDS011;333;48.800;9.530;2022-09-21T14:12:21;0.73;;;0.73;;
2259;SDS011;333;48.800;9.530;2022-09-21T14:17:35;0.80;;;0.80;;
2259;SDS011;333;48.800;9.530;2022-09-21T14:20:03;1.00;;;0.90;;
2259;SDS011;333;48.800;9.530;2022-09-21T14:22:36;1.17;;;0.80;;
2259;SDS011;333;48.800;9.530;2022-09-21T14:27:58;1.20;;;0.80;;
2259;SDS011;333;48.800;9.530;2022-09-21T14:30:27;0.80;;;0.80;;
2259;SDS011;333;48.800;9.530;2022-09-21T14:33:02;1.43;;;0.83;;
2259;SDS011;333;48.800;9.530;2022-09-21T14:35:32;1.30;;;0.87;;
2259;SDS011;333;48.800;9.530;2022-09-21T14:38:01;1.00;;;0.90;;
2259;SDS011;333;48.800;9.530;2022-09-21T14:40:35;1.10;;;1.00;;
2259;SDS011;333;48.800;9.530;2022-09-21T14:43:08;1.17;;;0.70;;
2259;SDS011;333;48.800;9.530;2022-09-21T14:45:40;1.70;;;0.67;;
2259;SDS011;333;48.800;9.530;2022-09-21T14:48:15;1.13;;;0.70;;
2259;SDS011;333;48.800;9.530;2022-09-21T14:50:48;0.70;;;0.70;;
2259;SDS011;333;48.800;9.530;2022-09-21T14:53:24;0.70;;;0.70;;
2259;SDS011;333;48.800;9.530;2022-09-21T14:55:59;2.13;;;0.83;;
2259;SDS011;333;48.800;9.530;2022-09-21T14:58:32;1.33;;;0.73;;
2259;SDS011;333;48.800;9.530;2022-09-21T15:01:14;2.17;;;1.20;;
2259;SDS011;333;48.800;9.530;2022-09-21T15:03:49;0.70;;;0.70;;
2259;SDS011;333;48.800;9.530;2022-09-21T15:06:21;1.43;;;0.80;;
2259;SDS011;333;48.800;9.530;2022-09-21T15:09:25;1.37;;;1.17;;
2259;SDS011;333;48.800;9.530;2022-09-21T15:12:15;2.07;;;1.00;;
2259;SDS011;333;48.800;9.530;2022-09-21T15:14:45;0.70;;;0.70;;
2259;SDS011;333;48.800;9.530;2022-09-21T15:17:17;0.83;;;0.70;;
2259;SDS011;333;48.800;9.530;2022-09-21T15:19:49;0.80;;;0.80;;
2259;SDS011;333;48.800;9.530;2022-09-21T15:22:17;1.13;;;0.83;;
2259;SDS011;333;48.800;9.530;2022-09-21T15:24:48;1.10;;;0.90;;
2259;SDS011;333;48.800;9.530;2022-09-21T15:27:17;0.70;;;0.70;;
2259;SDS011;333;48.800;9.530;2022-09-21T15:29:46;1.70;;;1.00;;
2259;SDS011;333;48.800;9.530;2022-09-21T15:32:15;1.37;;;1.00;;
2259;SDS011;333;48.800;9.530;2022-09-21T15:34:46;0.97;;;0.83;;
2259;SDS011;333;48.800;9.530;2022-09-21T15:37:14;0.87;;;0.80;;
2259;SDS011;333;48.800;9.530;2022-09-21T15:39:42;1.40;;;1.00;;
2259;SDS011;333;48.800;9.530;2022-09-21T15:42:12;0.83;;;0.70;;
2259;SDS011;333;48.800;9.530;2022-09-21T15:44:42;2.10;;;1.50;;
2259;SDS011;333;48.800;9.530;2022-09-21T15:47:14;0.93;;;0.87;;
2259;SDS011;333;48.800;9.530;2022-09-21T15:49:42;1.53;;;1.40;;
2259;SDS011;333;48.800;9.530;2022-09-21T15:52:11;1.47;;;1.37;;
2259;SDS011;333;48.800;9.530;2022-09-21T15:54:40;1.10;;;1.10;;
2259;SDS011;333;48.800;9.530;2022-09-21T15:57:21;1.03;;;0.93;;
2259;SDS011;333;48.800;9.530;2022-09-21T15:59:49;1.20;;;1.10;;